createdAt,value
2019-05-22T00:02:24.744Z,12.31
2019-05-22T00:05:06.422Z,12.31
2019-05-22T00:07:35.592Z,12.30
2019-05-22T00:10:06.837Z,12.21
2019-05-22T00:12:46.597Z,12.34
2019-05-22T00:15:10.369Z,12.31
2019-05-22T00:17:39.999Z,12.24
2019-05-22T00:20:11.406Z,12.24
2019-05-22T00:22:42.876Z,12.21
2019-05-22T00:25:16.017Z,12.19
2019-05-22T00:27:47.047Z,12.21
2019-05-22T00:30:16.571Z,12.27
2019-05-22T00:32:47.481Z,12.11
2019-05-22T00:35:19.201Z,12.08
2019-05-22T00:37:47.969Z,12.06
2019-05-22T00:40:18.520Z,12.03
2019-05-22T00:43:02.867Z,12.00
2019-05-22T00:45:22.699Z,12.04
2019-05-22T00:47:51.977Z,11.98
2019-05-22T00:50:24.868Z,11.93
2019-05-22T00:53:12.297Z,12.06
2019-05-22T00:55:58.510Z,12.01
2019-05-22T00:58:40.181Z,12.09
2019-05-22T01:01:18.285Z,11.97
2019-05-22T01:03:49.270Z,11.98
2019-05-22T01:06:20.947Z,12.11
2019-05-22T01:08:52.707Z,11.90
2019-05-22T01:11:24.518Z,11.94
2019-05-22T01:13:54.151Z,11.92
2019-05-22T01:16:24.932Z,12.01
2019-05-22T01:18:54.494Z,11.85
2019-05-22T01:21:25.486Z,11.93
2019-05-22T01:23:59.876Z,12.00
2019-05-22T01:26:29.032Z,11.96
2019-05-22T01:28:58.288Z,11.93
2019-05-22T01:31:33.320Z,11.94
2019-05-22T01:34:07.881Z,11.91
2019-05-22T01:36:44.592Z,11.84
2019-05-22T01:39:43.885Z,11.86
2019-05-22T01:42:17.931Z,11.84
2019-05-22T01:45:00.979Z,11.79
2019-05-22T01:47:48.691Z,11.72
2019-05-22T01:50:25.590Z,11.78
2019-05-22T01:52:56.046Z,11.72
2019-05-22T01:55:27.106Z,11.73
2019-05-22T01:57:55.983Z,11.74
2019-05-22T02:00:24.916Z,11.78
2019-05-22T02:02:54.044Z,11.78
2019-05-22T02:05:25.125Z,11.77
2019-05-22T02:07:55.938Z,11.77
2019-05-22T02:10:30.351Z,11.68
2019-05-22T02:13:02.921Z,11.66
2019-05-22T02:15:34.779Z,11.71
2019-05-22T02:18:04.737Z,11.60
2019-05-22T02:20:33.811Z,11.67
2019-05-22T02:23:03.249Z,11.76
2019-05-22T02:25:32.439Z,11.72
2019-05-22T02:28:01.617Z,11.62
2019-05-22T02:30:33.139Z,11.56
2019-05-22T02:33:02.344Z,11.48
2019-05-22T02:35:31.412Z,11.57
2019-05-22T02:38:01.237Z,11.56
2019-05-22T02:40:33.487Z,11.51
2019-05-22T02:43:04.173Z,11.52
2019-05-22T02:45:33.909Z,11.37
2019-05-22T02:48:05.895Z,11.44
2019-05-22T02:50:35.270Z,11.42
2019-05-22T02:53:07.503Z,11.44
2019-05-22T02:55:37.477Z,11.34
2019-05-22T02:58:07.714Z,11.32
2019-05-22T03:00:48.708Z,11.35
2019-05-22T03:03:17.652Z,11.41
2019-05-22T03:05:48.299Z,11.19
2019-05-22T03:08:18.377Z,11.20
2019-05-22T03:10:47.447Z,11.22
2019-05-22T03:13:17.088Z,11.23
2019-05-22T03:15:46.724Z,11.25
2019-05-22T03:18:17.110Z,11.19
2019-05-22T03:20:48.225Z,11.16
2019-05-22T03:23:37.787Z,11.19
2019-05-22T03:26:10.782Z,11.24
2019-05-22T03:28:41.007Z,11.22
2019-05-22T03:31:11.086Z,11.16
2019-05-22T03:33:41.226Z,11.05
2019-05-22T03:36:13.832Z,11.12
2019-05-22T03:38:44.105Z,11.13
2019-05-22T03:41:13.400Z,11.09
2019-05-22T03:43:44.979Z,11.16
2019-05-22T03:46:30.774Z,11.09
2019-05-22T03:49:00.660Z,11.04
2019-05-22T03:51:29.969Z,11.02
2019-05-22T03:53:59.306Z,11.07
2019-05-22T03:56:30.125Z,11.12
2019-05-22T03:59:00.877Z,11.07
2019-05-22T04:01:31.416Z,10.98
2019-05-22T04:04:02.025Z,11.07
2019-05-22T04:06:32.952Z,11.10
2019-05-22T04:09:10.426Z,11.11
2019-05-22T04:11:42.740Z,11.05
2019-05-22T04:14:12.413Z,11.06
2019-05-22T04:16:41.482Z,11.22
2019-05-22T04:19:10.678Z,11.04
2019-05-22T04:21:39.857Z,10.95
2019-05-22T04:24:09.553Z,10.87
2019-05-22T04:26:38.496Z,11.00
2019-05-22T04:29:09.658Z,10.93
2019-05-22T04:31:56.161Z,10.96
2019-05-22T04:34:25.620Z,11.08
2019-05-22T04:36:55.555Z,10.98
2019-05-22T04:39:27.341Z,11.11
2019-05-22T04:41:58.899Z,10.96
2019-05-22T04:44:28.241Z,11.00
2019-05-22T04:46:57.264Z,10.94
2019-05-22T04:49:25.998Z,11.03
2019-05-22T04:51:55.741Z,11.14
2019-05-22T04:54:24.714Z,10.99
2019-05-22T04:56:53.649Z,10.85
2019-05-22T04:59:22.771Z,10.85
2019-05-22T05:01:51.842Z,10.96
2019-05-22T05:04:21.265Z,10.94
2019-05-22T05:06:50.574Z,10.92
2019-05-22T05:09:19.715Z,10.90
2019-05-22T05:11:49.455Z,10.93
2019-05-22T05:14:18.500Z,11.00
2019-05-22T05:16:48.702Z,10.94
2019-05-22T05:19:17.585Z,10.84
2019-05-22T05:21:46.899Z,10.90
2019-05-22T05:24:15.951Z,10.81
2019-05-22T05:26:46.020Z,10.74
2019-05-22T05:29:30.457Z,10.72
2019-05-22T05:31:59.759Z,10.76
2019-05-22T05:34:55.717Z,10.79
2019-05-22T05:37:25.077Z,10.78
2019-05-22T05:40:21.337Z,10.78
2019-05-22T05:42:50.816Z,10.76
2019-05-22T05:45:19.865Z,10.69
2019-05-22T05:47:48.558Z,10.75
2019-05-22T05:50:18.267Z,10.71
2019-05-22T05:52:48.043Z,10.65
2019-05-22T05:55:17.951Z,10.72
2019-05-22T05:58:32.427Z,10.78
2019-05-22T06:01:13.005Z,10.78
2019-05-22T06:03:43.502Z,10.73
2019-05-22T06:06:57.550Z,10.55
2019-05-22T06:09:28.256Z,10.55
2019-05-22T06:12:05.417Z,10.67
2019-05-22T06:14:35.872Z,10.63
2019-05-22T06:17:44.726Z,10.54
2019-05-22T06:20:20.504Z,10.48
2019-05-22T06:23:46.014Z,10.61
2019-05-22T06:26:25.366Z,10.74
2019-05-22T06:28:54.135Z,10.71
2019-05-22T06:31:36.070Z,10.58
2019-05-22T06:34:04.938Z,10.55
2019-05-22T06:36:33.960Z,10.71
2019-05-22T06:39:16.561Z,10.67
2019-05-22T06:41:46.856Z,10.73
2019-05-22T06:44:35.289Z,10.65
2019-05-22T06:47:06.481Z,10.75
2019-05-22T06:49:45.502Z,10.68
2019-05-22T06:52:17.883Z,10.61
2019-05-22T06:54:47.600Z,10.66
2019-05-22T06:57:23.344Z,10.72
2019-05-22T07:00:11.562Z,10.50
2019-05-22T07:02:24.972Z,10.55
2019-05-22T07:04:54.866Z,10.63
2019-05-22T07:07:27.499Z,10.63
2019-05-22T07:09:56.749Z,10.44
2019-05-22T07:12:28.475Z,10.54
2019-05-22T07:15:31.733Z,10.62
2019-05-22T07:18:01.244Z,10.50
2019-05-22T07:20:33.298Z,10.48
2019-05-22T07:23:04.207Z,10.53
2019-05-22T07:25:35.581Z,10.55
2019-05-22T07:28:05.535Z,10.48
2019-05-22T07:30:34.631Z,10.52
2019-05-22T07:33:04.741Z,10.52
2019-05-22T07:35:46.038Z,10.48
2019-05-22T07:38:04.329Z,10.59
2019-05-22T07:40:33.633Z,10.52
2019-05-22T07:43:02.657Z,10.56
2019-05-22T07:45:32.730Z,10.58
2019-05-22T07:48:02.384Z,10.53
2019-05-22T07:50:33.987Z,10.48
2019-05-22T07:53:03.333Z,10.47
2019-05-22T07:55:53.826Z,10.47
2019-05-22T07:58:24.674Z,10.46
2019-05-22T08:00:59.072Z,10.52
2019-05-22T08:03:28.659Z,10.54
2019-05-22T08:05:58.857Z,10.51
2019-05-22T08:08:29.919Z,10.62
2019-05-22T08:10:59.717Z,10.52
2019-05-22T08:13:29.293Z,10.43
2019-05-22T08:15:58.576Z,10.40
2019-05-22T08:18:30.388Z,10.46
2019-05-22T08:20:59.441Z,10.55
2019-05-22T08:23:28.309Z,10.50
2019-05-22T08:25:58.755Z,10.47
2019-05-22T08:28:30.198Z,10.46
2019-05-22T08:31:00.506Z,10.48
2019-05-22T08:33:30.485Z,10.48
2019-05-22T08:35:59.554Z,10.61
2019-05-22T08:38:31.220Z,10.64
2019-05-22T08:41:01.472Z,10.46
2019-05-22T08:43:31.086Z,10.41
2019-05-22T08:46:00.523Z,10.43
2019-05-22T08:48:30.696Z,10.44
2019-05-22T08:51:00.138Z,10.39
2019-05-22T08:53:44.364Z,10.28
2019-05-22T08:56:00.785Z,10.23
2019-05-22T08:58:29.980Z,10.15
2019-05-22T09:00:58.752Z,10.05
2019-05-22T09:03:27.779Z,10.17
2019-05-22T09:05:56.787Z,10.29
2019-05-22T09:08:25.713Z,10.19
2019-05-22T09:10:54.804Z,10.21
2019-05-22T09:13:24.079Z,10.18
2019-05-22T09:15:53.684Z,10.07
2019-05-22T09:18:23.015Z,10.01
2019-05-22T09:20:51.890Z,9.97
2019-05-22T09:23:20.660Z,10.08
2019-05-22T09:25:49.631Z,9.97
2019-05-22T09:28:18.785Z,9.97
2019-05-22T09:30:47.787Z,9.99
2019-05-22T09:33:17.871Z,10.10
2019-05-22T09:35:46.893Z,10.00
2019-05-22T09:38:15.712Z,10.05
2019-05-22T09:40:45.115Z,9.97
2019-05-22T09:43:14.175Z,10.02
2019-05-22T09:45:42.934Z,10.04
2019-05-22T09:48:11.709Z,10.01
2019-05-22T09:50:40.737Z,10.14
2019-05-22T09:53:09.775Z,10.16
2019-05-22T09:55:40.657Z,10.17
2019-05-22T09:58:09.348Z,10.24
2019-05-22T10:00:38.640Z,10.33
2019-05-22T10:03:07.613Z,10.38
2019-05-22T10:05:38.213Z,10.43
2019-05-22T10:08:07.645Z,10.50
2019-05-22T10:10:36.544Z,10.48
2019-05-22T10:13:05.450Z,10.48
2019-05-22T10:15:34.560Z,10.31
2019-05-22T10:18:03.754Z,10.31
2019-05-22T10:20:32.880Z,10.40
2019-05-22T10:23:14.605Z,10.52
2019-05-22T10:25:33.234Z,10.75
2019-05-22T10:28:02.253Z,10.97
2019-05-22T10:30:31.472Z,11.07
2019-05-22T10:33:00.221Z,11.21
2019-05-22T10:35:31.866Z,11.37
2019-05-22T10:38:01.418Z,11.35
2019-05-22T10:40:30.177Z,11.34
2019-05-22T10:42:58.860Z,11.50
2019-05-22T10:45:28.457Z,11.48
2019-05-22T10:47:57.801Z,11.29
2019-05-22T10:50:26.573Z,11.35
2019-05-22T10:52:55.736Z,11.28
2019-05-22T10:55:24.952Z,11.28
2019-05-22T10:57:54.355Z,11.27
2019-05-22T11:00:24.908Z,11.25
2019-05-22T11:02:53.864Z,11.13
2019-05-22T11:05:22.702Z,11.15
2019-05-22T11:07:52.309Z,11.25
2019-05-22T11:10:24.266Z,11.30
2019-05-22T11:12:53.873Z,11.41
2019-05-22T11:15:23.669Z,11.32
2019-05-22T11:17:53.706Z,11.21
2019-05-22T11:20:24.462Z,11.25
2019-05-22T11:22:54.290Z,11.32
2019-05-22T11:25:23.535Z,11.41
2019-05-22T11:27:54.270Z,11.43
2019-05-22T11:30:24.016Z,11.39
2019-05-22T11:32:53.589Z,11.40
2019-05-22T11:35:22.892Z,11.45
2019-05-22T11:37:51.774Z,11.61
2019-05-22T11:40:21.367Z,11.57
2019-05-22T11:42:51.930Z,11.70
2019-05-22T11:45:22.084Z,11.88
2019-05-22T11:47:51.511Z,11.84
2019-05-22T11:50:21.806Z,11.74
2019-05-22T11:52:51.246Z,11.56
2019-05-22T11:55:20.957Z,11.67
2019-05-22T11:57:51.949Z,11.63
2019-05-22T12:00:23.070Z,11.53
2019-05-22T12:02:52.235Z,11.55
2019-05-22T12:05:21.931Z,11.48
2019-05-22T12:07:51.612Z,11.65
2019-05-22T12:10:22.412Z,11.80
2019-05-22T12:12:52.782Z,11.94
2019-05-22T12:15:23.870Z,12.12
2019-05-22T12:17:53.418Z,12.28
2019-05-22T12:20:24.328Z,12.26
2019-05-22T12:22:53.261Z,12.48
2019-05-22T12:25:22.819Z,12.60
2019-05-22T12:27:51.912Z,12.42
2019-05-22T12:30:21.797Z,12.24
2019-05-22T12:32:52.438Z,12.29
2019-05-22T12:35:22.104Z,12.29
2019-05-22T12:37:50.895Z,12.30
2019-05-22T12:40:20.816Z,12.19
2019-05-22T12:42:49.707Z,12.46
2019-05-22T12:45:26.896Z,12.83
2019-05-22T12:47:56.112Z,12.75
2019-05-22T12:50:29.036Z,12.81
2019-05-22T12:52:58.742Z,12.93
2019-05-22T12:55:27.780Z,12.85
2019-05-22T12:57:56.557Z,12.99
2019-05-22T13:00:27.042Z,12.86
2019-05-22T13:02:56.544Z,12.99
2019-05-22T13:05:27.363Z,12.85
2019-05-22T13:07:57.001Z,12.93
2019-05-22T13:10:27.955Z,12.93
2019-05-22T13:12:57.208Z,13.23
2019-05-22T13:15:26.757Z,13.54
2019-05-22T13:17:57.949Z,13.56
2019-05-22T13:20:41.754Z,13.89
2019-05-22T13:23:03.264Z,13.54
2019-05-22T13:25:35.937Z,13.76
2019-05-22T13:28:05.751Z,13.53
2019-05-22T13:30:36.338Z,13.46
2019-05-22T13:33:05.919Z,13.60
2019-05-22T13:35:35.537Z,13.97
2019-05-22T13:38:05.411Z,14.08
2019-05-22T13:40:34.809Z,14.30
2019-05-22T13:43:04.781Z,14.61
2019-05-22T13:45:34.106Z,14.78
2019-05-22T13:48:04.385Z,14.86
2019-05-22T13:50:33.359Z,14.92
2019-05-22T13:53:04.899Z,14.68
2019-05-22T13:55:33.840Z,14.71
2019-05-22T13:58:03.410Z,14.61
2019-05-22T14:00:32.619Z,14.12
2019-05-22T14:03:01.913Z,14.09
2019-05-22T14:05:33.114Z,14.16
2019-05-22T14:08:01.907Z,14.04
2019-05-22T14:10:31.527Z,14.35
2019-05-22T14:13:01.278Z,14.60
2019-05-22T14:15:47.782Z,14.73
2019-05-22T14:18:02.294Z,15.12
2019-05-22T14:20:31.112Z,15.28
2019-05-22T14:22:59.956Z,15.25
2019-05-22T14:25:29.249Z,15.46
2019-05-22T14:27:58.143Z,15.42
2019-05-22T14:30:27.891Z,15.20
2019-05-22T14:33:03.964Z,15.38
2019-05-22T14:35:47.816Z,15.65
2019-05-22T14:38:06.406Z,15.72
2019-05-22T14:40:37.769Z,15.52
2019-05-22T14:43:07.580Z,15.23
2019-05-22T14:45:37.643Z,14.99
2019-05-22T14:48:06.506Z,14.87
2019-05-22T14:50:36.010Z,15.21
2019-05-22T14:53:04.818Z,15.12
2019-05-22T14:55:35.099Z,14.85
2019-05-22T14:58:05.859Z,14.90
2019-05-22T15:00:35.201Z,15.35
2019-05-22T15:03:05.037Z,15.34
2019-05-22T15:05:34.349Z,15.59
2019-05-22T15:08:03.609Z,15.75
2019-05-22T15:10:33.120Z,15.60
2019-05-22T15:13:02.727Z,15.85
2019-05-22T15:15:31.570Z,16.18
2019-05-22T15:18:00.681Z,16.45
2019-05-22T15:20:46.876Z,16.69
2019-05-22T15:23:18.310Z,16.61
2019-05-22T15:25:48.215Z,16.41
2019-05-22T15:28:17.044Z,16.87
2019-05-22T15:30:46.044Z,16.67
2019-05-22T15:33:15.905Z,16.50
2019-05-22T15:35:45.812Z,16.19
2019-05-22T15:38:16.405Z,15.57
2019-05-22T15:40:46.138Z,15.81
2019-05-22T15:43:16.022Z,16.04
2019-05-22T15:45:45.313Z,16.08
2019-05-22T15:48:21.513Z,16.24
2019-05-22T15:50:53.523Z,15.83
2019-05-22T15:53:45.349Z,15.63
2019-05-22T15:56:14.934Z,15.98
2019-05-22T15:58:47.905Z,16.22
2019-05-22T16:01:20.040Z,16.33
2019-05-22T16:03:51.230Z,16.30
2019-05-22T16:06:21.827Z,16.45
2019-05-22T16:08:50.981Z,16.22
2019-05-22T16:11:21.467Z,16.30
2019-05-22T16:13:51.296Z,16.36
2019-05-22T16:16:24.311Z,16.24
2019-05-22T16:18:55.978Z,16.19
2019-05-22T16:21:27.231Z,16.38
2019-05-22T16:23:57.945Z,16.58
2019-05-22T16:26:27.669Z,16.61
2019-05-22T16:28:56.937Z,16.49
2019-05-22T16:31:27.162Z,16.58
2019-05-22T16:33:56.103Z,16.68
2019-05-22T16:36:25.729Z,16.63
2019-05-22T16:38:54.836Z,16.53
2019-05-22T16:41:25.632Z,16.43
2019-05-22T16:43:55.889Z,16.32
2019-05-22T16:46:25.641Z,16.25
2019-05-22T16:48:54.770Z,16.28
2019-05-22T16:51:25.626Z,16.25
2019-05-22T16:53:57.333Z,16.05
2019-05-22T16:56:26.491Z,15.94
2019-05-22T16:58:55.990Z,15.84
2019-05-22T17:01:26.403Z,15.83
2019-05-22T17:03:58.450Z,15.73
2019-05-22T17:06:27.341Z,15.69
2019-05-22T17:08:57.846Z,15.65
2019-05-22T17:11:27.723Z,15.56
2019-05-22T17:13:59.066Z,15.56
2019-05-22T17:16:30.327Z,15.50
2019-05-22T17:18:59.269Z,15.51
2019-05-22T17:21:29.475Z,15.53
2019-05-22T17:24:00.163Z,15.58
2019-05-22T17:26:30.099Z,15.51
2019-05-22T17:28:59.879Z,15.44
2019-05-22T17:31:29.719Z,15.37
2019-05-22T17:33:59.459Z,15.36
2019-05-22T17:36:30.613Z,15.33
2019-05-22T17:39:00.053Z,15.44
2019-05-22T17:41:30.479Z,15.31
2019-05-22T17:44:00.754Z,15.38
2019-05-22T17:46:31.407Z,15.22
2019-05-22T17:49:01.282Z,15.21
2019-05-22T17:51:30.941Z,15.25
2019-05-22T17:54:00.534Z,15.23
2019-05-22T17:56:30.581Z,15.12
2019-05-22T17:58:59.714Z,15.06
2019-05-22T18:01:28.752Z,15.00
2019-05-22T18:03:57.565Z,14.91
2019-05-22T18:06:26.624Z,14.90
2019-05-22T18:08:55.643Z,14.93
2019-05-22T18:11:25.018Z,14.84
2019-05-22T18:13:58.999Z,14.78
2019-05-22T18:16:28.207Z,14.80
2019-05-22T18:18:57.487Z,14.82
2019-05-22T18:21:26.364Z,14.76
2019-05-22T18:23:55.205Z,14.82
2019-05-22T18:26:24.743Z,14.82
2019-05-22T18:28:53.482Z,14.75
2019-05-22T18:31:22.242Z,14.77
2019-05-22T18:33:51.313Z,14.77
2019-05-22T18:36:20.073Z,14.76
2019-05-22T18:38:49.093Z,14.62
2019-05-22T18:41:17.929Z,14.54
2019-05-22T18:43:46.610Z,14.43
2019-05-22T18:46:15.971Z,14.37
2019-05-22T18:48:47.723Z,14.25
2019-05-22T18:51:15.100Z,14.19
2019-05-22T18:53:43.776Z,14.15
2019-05-22T18:56:13.268Z,14.07
2019-05-22T18:58:44.027Z,14.05
2019-05-22T19:01:16.208Z,14.08
2019-05-22T19:03:43.494Z,14.09
2019-05-22T19:06:12.349Z,14.05
2019-05-22T19:08:41.718Z,14.05
2019-05-22T19:11:10.406Z,13.98
2019-05-22T19:13:39.158Z,13.89
2019-05-22T19:16:08.283Z,13.83
2019-05-22T19:18:37.304Z,13.79
2019-05-22T19:21:06.347Z,13.73
2019-05-22T19:23:35.366Z,13.74
2019-05-22T19:26:05.886Z,13.73
2019-05-22T19:28:43.281Z,13.69
2019-05-22T19:31:05.859Z,13.65
2019-05-22T19:33:35.215Z,13.58
2019-05-22T19:36:04.657Z,13.57
2019-05-22T19:38:33.468Z,13.48
2019-05-22T19:41:02.597Z,13.38
2019-05-22T19:43:31.567Z,13.26
2019-05-22T19:46:00.622Z,13.24
2019-05-22T19:48:29.500Z,13.20
2019-05-22T19:51:01.510Z,13.14
2019-05-22T19:53:30.084Z,13.08
2019-05-22T19:55:59.439Z,13.06
2019-05-22T19:58:28.573Z,13.03
2019-05-22T20:00:57.715Z,13.01
2019-05-22T20:03:26.547Z,13.01
2019-05-22T20:05:55.471Z,13.04
2019-05-22T20:08:24.894Z,12.99
2019-05-22T20:10:54.452Z,12.85
2019-05-22T20:13:23.922Z,12.72
2019-05-22T20:15:52.662Z,12.57
2019-05-22T20:18:21.875Z,12.44
2019-05-22T20:20:51.883Z,12.40
2019-05-22T20:23:34.639Z,12.35
2019-05-22T20:25:52.372Z,12.22
2019-05-22T20:28:21.461Z,12.18
2019-05-22T20:30:50.668Z,12.17
2019-05-22T20:33:20.682Z,12.18
2019-05-22T20:35:49.366Z,12.18
2019-05-22T20:38:18.458Z,12.19
2019-05-22T20:40:47.858Z,12.17
2019-05-22T20:43:17.159Z,12.29
2019-05-22T20:45:46.564Z,12.40
2019-05-22T20:48:24.669Z,12.44
2019-05-22T20:50:55.329Z,12.52
2019-05-22T20:53:25.665Z,12.54
2019-05-22T20:55:55.018Z,12.52
2019-05-22T20:58:24.083Z,12.50
2019-05-22T21:00:53.527Z,12.51
2019-05-22T21:03:23.049Z,12.57
2019-05-22T21:05:54.298Z,12.55
2019-05-22T21:08:25.233Z,12.53
2019-05-22T21:10:55.731Z,12.52
2019-05-22T21:13:24.499Z,12.55
2019-05-22T21:15:54.934Z,12.45
2019-05-22T21:18:28.205Z,12.45
2019-05-22T21:20:57.415Z,12.45
2019-05-22T21:23:28.717Z,12.44
2019-05-22T21:25:57.814Z,12.41
2019-05-22T21:28:26.881Z,12.34
2019-05-22T21:30:57.574Z,12.32
2019-05-22T21:33:26.307Z,12.29
2019-05-22T21:35:55.301Z,12.28
2019-05-22T21:38:24.638Z,12.28
2019-05-22T21:40:56.051Z,12.25
2019-05-22T21:43:24.872Z,12.27
2019-05-22T21:45:53.811Z,12.22
2019-05-22T21:48:22.498Z,12.20
2019-05-22T21:50:51.508Z,12.12
2019-05-22T21:53:21.208Z,12.19
2019-05-22T21:56:03.696Z,12.16
2019-05-22T21:58:21.244Z,12.16
2019-05-22T22:01:29.371Z,12.15
2019-05-22T22:04:20.784Z,12.10
2019-05-22T22:06:51.440Z,12.08
2019-05-22T22:09:21.934Z,12.02
2019-05-22T22:11:50.915Z,12.02
2019-05-22T22:14:20.896Z,12.02
2019-05-22T22:16:49.936Z,11.97
2019-05-22T22:19:20.494Z,11.96
2019-05-22T22:21:50.278Z,11.97
2019-05-22T22:24:20.389Z,11.98
2019-05-22T22:26:50.208Z,11.96
2019-05-22T22:29:19.814Z,11.96
2019-05-22T22:31:48.944Z,11.92
2019-05-22T22:34:27.659Z,11.91
2019-05-22T22:36:57.734Z,11.93
2019-05-22T22:39:28.385Z,11.84
2019-05-22T22:41:59.715Z,11.75
2019-05-22T22:44:29.579Z,11.67
2019-05-22T22:47:04.314Z,11.66
2019-05-22T22:49:35.183Z,11.62
2019-05-22T22:52:07.664Z,11.56
2019-05-22T22:54:37.629Z,11.53
2019-05-22T22:57:06.947Z,11.49
2019-05-22T22:59:36.380Z,11.51
2019-05-22T23:02:09.627Z,11.54
2019-05-22T23:04:39.760Z,11.53
2019-05-22T23:07:09.789Z,11.67
2019-05-22T23:09:42.720Z,11.80
2019-05-22T23:12:12.936Z,11.91
2019-05-22T23:14:47.989Z,11.97
2019-05-22T23:17:20.510Z,11.86
2019-05-22T23:19:48.238Z,11.84
2019-05-22T23:22:19.537Z,11.75
2019-05-22T23:24:52.099Z,11.69
2019-05-22T23:27:21.486Z,11.68
2019-05-22T23:29:51.345Z,11.58
2019-05-22T23:32:21.774Z,11.54
2019-05-22T23:34:51.282Z,11.44
2019-05-22T23:37:22.474Z,11.42
2019-05-22T23:39:56.925Z,11.36
2019-05-22T23:42:31.465Z,11.34
2019-05-22T23:45:03.637Z,11.30
2019-05-22T23:47:32.661Z,11.28
2019-05-22T23:50:01.669Z,11.31
2019-05-22T23:52:31.041Z,11.32
2019-05-22T23:55:01.169Z,11.33
2019-05-22T23:57:30.753Z,11.28
